sensor_id;sensor_type;location;lat;lon;timestamp;temperature;humidity
32366;DHT22;18837;46.832;16.838;2023-03-29T00:00:06;6.80;85.70
32366;DHT22;18837;46.832;16.838;2023-03-29T00:02:42;6.80;88.10
32366;DHT22;18837;46.832;16.838;2023-03-29T00:05:13;6.80;84.70
32366;DHT22;18837;46.832;16.838;2023-03-29T00:07:40;6.80;84.60
32366;DHT22;18837;46.832;16.838;2023-03-29T00:10:12;7.00;84.70
32366;DHT22;18837;46.832;16.838;2023-03-29T00:12:38;6.80;86.10
32366;DHT22;18837;46.832;16.838;2023-03-29T00:15:06;6.70;84.50
32366;DHT22;18837;46.832;16.838;2023-03-29T00:17:32;6.70;85.40
32366;DHT22;18837;46.832;16.838;2023-03-29T00:19:58;6.70;84.80
32366;DHT22;18837;46.832;16.838;2023-03-29T00:22:24;6.70;84.70
32366;DHT22;18837;46.832;16.838;2023-03-29T00:25:10;6.70;84.80
32366;DHT22;18837;46.832;16.838;2023-03-29T00:28:00;6.70;89.60
32366;DHT22;18837;46.832;16.838;2023-03-29T00:30:28;6.70;89.30
32366;DHT22;18837;46.832;16.838;2023-03-29T00:32:53;6.70;85.20
32366;DHT22;18837;46.832;16.838;2023-03-29T00:35:19;6.70;84.70
32366;DHT22;18837;46.832;16.838;2023-03-29T00:37:45;6.70;84.80
32366;DHT22;18837;46.832;16.838;2023-03-29T00:40:17;6.60;86.40
32366;DHT22;18837;46.832;16.838;2023-03-29T00:42:44;6.60;84.60
32366;DHT22;18837;46.832;16.838;2023-03-29T00:45:25;6.60;85.00
32366;DHT22;18837;46.832;16.838;2023-03-29T00:47:57;6.60;85.10
32366;DHT22;18837;46.832;16.838;2023-03-29T00:55:44;6.60;88.00
32366;DHT22;18837;46.832;16.838;2023-03-29T00:58:14;6.60;85.30
32366;DHT22;18837;46.832;16.838;2023-03-29T01:01:09;6.60;84.50
32366;DHT22;18837;46.832;16.838;2023-03-29T01:03:59;6.60;89.60
32366;DHT22;18837;46.832;16.838;2023-03-29T01:06:29;6.50;84.70
32366;DHT22;18837;46.832;16.838;2023-03-29T01:08:59;6.50;84.50
32366;DHT22;18837;46.832;16.838;2023-03-29T01:11:29;6.50;84.80
32366;DHT22;18837;46.832;16.838;2023-03-29T01:14:17;6.50;84.50
32366;DHT22;18837;46.832;16.838;2023-03-29T01:16:43;6.50;84.90
32366;DHT22;18837;46.832;16.838;2023-03-29T01:19:14;6.50;84.30
32366;DHT22;18837;46.832;16.838;2023-03-29T01:21:50;6.50;84.70
32366;DHT22;18837;46.832;16.838;2023-03-29T01:29:42;6.40;85.10
32366;DHT22;18837;46.832;16.838;2023-03-29T01:32:29;6.40;87.40
32366;DHT22;18837;46.832;16.838;2023-03-29T01:35:26;6.40;87.80
32366;DHT22;18837;46.832;16.838;2023-03-29T01:38:20;6.40;87.90
32366;DHT22;18837;46.832;16.838;2023-03-29T01:40:48;6.40;84.60
32366;DHT22;18837;46.832;16.838;2023-03-29T01:43:35;6.40;84.40
32366;DHT22;18837;46.832;16.838;2023-03-29T01:46:08;6.40;88.50
32366;DHT22;18837;46.832;16.838;2023-03-29T01:48:45;6.40;84.50
32366;DHT22;18837;46.832;16.838;2023-03-29T01:51:22;6.40;84.50
32366;DHT22;18837;46.832;16.838;2023-03-29T01:54:14;6.40;84.50
32366;DHT22;18837;46.832;16.838;2023-03-29T01:56:44;6.40;87.80
32366;DHT22;18837;46.832;16.838;2023-03-29T01:59:22;6.40;84.40
32366;DHT22;18837;46.832;16.838;2023-03-29T02:01:51;6.40;87.20
32366;DHT22;18837;46.832;16.838;2023-03-29T02:04:33;6.40;84.40
32366;DHT22;18837;46.832;16.838;2023-03-29T02:07:03;6.40;87.40
32366;DHT22;18837;46.832;16.838;2023-03-29T02:09:42;6.40;84.00
32366;DHT22;18837;46.832;16.838;2023-03-29T02:12:21;6.30;84.50
32366;DHT22;18837;46.832;16.838;2023-03-29T02:14:47;6.30;84.70
32366;DHT22;18837;46.832;16.838;2023-03-29T02:17:18;6.40;84.20
32366;DHT22;18837;46.832;16.838;2023-03-29T02:19:51;6.30;84.30
32366;DHT22;18837;46.832;16.838;2023-03-29T02:22:36;6.30;85.00
32366;DHT22;18837;46.832;16.838;2023-03-29T02:25:04;6.30;84.20
32366;DHT22;18837;46.832;16.838;2023-03-29T02:27:38;6.30;84.30
32366;DHT22;18837;46.832;16.838;2023-03-29T02:30:06;6.30;84.50
32366;DHT22;18837;46.832;16.838;2023-03-29T02:35:09;6.30;84.20
32366;DHT22;18837;46.832;16.838;2023-03-29T02:37:39;6.30;84.10
32366;DHT22;18837;46.832;16.838;2023-03-29T02:40:08;6.30;83.90
32366;DHT22;18837;46.832;16.838;2023-03-29T02:42:47;6.20;84.40
32366;DHT22;18837;46.832;16.838;2023-03-29T02:45:19;6.20;84.40
32366;DHT22;18837;46.832;16.838;2023-03-29T02:47:53;6.30;84.00
32366;DHT22;18837;46.832;16.838;2023-03-29T02:50:20;6.20;84.10
32366;DHT22;18837;46.832;16.838;2023-03-29T02:52:53;6.20;84.10
32366;DHT22;18837;46.832;16.838;2023-03-29T02:55:22;6.20;84.00
32366;DHT22;18837;46.832;16.838;2023-03-29T02:57:49;6.20;83.90
32366;DHT22;18837;46.832;16.838;2023-03-29T03:00:15;6.20;84.00
32366;DHT22;18837;46.832;16.838;2023-03-29T03:02:49;6.20;84.10
32366;DHT22;18837;46.832;16.838;2023-03-29T03:05:16;6.20;84.80
32366;DHT22;18837;46.832;16.838;2023-03-29T03:07:42;6.20;84.30
32366;DHT22;18837;46.832;16.838;2023-03-29T03:10:09;6.20;83.50
32366;DHT22;18837;46.832;16.838;2023-03-29T03:12:35;6.20;83.90
32366;DHT22;18837;46.832;16.838;2023-03-29T03:15:03;6.20;83.60
32366;DHT22;18837;46.832;16.838;2023-03-29T03:17:39;6.20;83.80
32366;DHT22;18837;46.832;16.838;2023-03-29T03:20:17;6.10;84.20
32366;DHT22;18837;46.832;16.838;2023-03-29T03:22:50;6.10;84.60
32366;DHT22;18837;46.832;16.838;2023-03-29T03:25:18;6.10;85.60
32366;DHT22;18837;46.832;16.838;2023-03-29T03:27:46;6.10;83.80
32366;DHT22;18837;46.832;16.838;2023-03-29T03:30:12;6.10;83.80
32366;DHT22;18837;46.832;16.838;2023-03-29T03:32:38;6.10;84.60
32366;DHT22;18837;46.832;16.838;2023-03-29T03:35:05;6.10;83.90
32366;DHT22;18837;46.832;16.838;2023-03-29T03:37:38;6.00;84.40
32366;DHT22;18837;46.832;16.838;2023-03-29T03:40:05;6.00;84.10
32366;DHT22;18837;46.832;16.838;2023-03-29T03:42:31;6.10;85.40
32366;DHT22;18837;46.832;16.838;2023-03-29T03:44:57;6.00;84.10
32366;DHT22;18837;46.832;16.838;2023-03-29T03:47:23;6.00;84.70
32366;DHT22;18837;46.832;16.838;2023-03-29T03:49:49;6.00;84.40
32366;DHT22;18837;46.832;16.838;2023-03-29T03:52:28;6.00;84.20
32366;DHT22;18837;46.832;16.838;2023-03-29T03:58:22;6.00;89.80
32366;DHT22;18837;46.832;16.838;2023-03-29T04:00:49;6.00;84.20
32366;DHT22;18837;46.832;16.838;2023-03-29T04:03:16;6.00;84.30
32366;DHT22;18837;46.832;16.838;2023-03-29T04:05:43;6.00;83.90
32366;DHT22;18837;46.832;16.838;2023-03-29T04:08:10;6.00;84.40
32366;DHT22;18837;46.832;16.838;2023-03-29T04:10:53;6.00;84.20
32366;DHT22;18837;46.832;16.838;2023-03-29T04:13:20;6.00;86.90
32366;DHT22;18837;46.832;16.838;2023-03-29T04:15:47;5.90;84.10
32366;DHT22;18837;46.832;16.838;2023-03-29T04:18:14;5.90;83.90
32366;DHT22;18837;46.832;16.838;2023-03-29T04:20:42;6.00;83.80
32366;DHT22;18837;46.832;16.838;2023-03-29T04:23:08;5.90;83.70
32366;DHT22;18837;46.832;16.838;2023-03-29T04:25:34;5.90;84.20
32366;DHT22;18837;46.832;16.838;2023-03-29T04:28:19;5.90;84.30
32366;DHT22;18837;46.832;16.838;2023-03-29T04:30:57;5.90;86.00
32366;DHT22;18837;46.832;16.838;2023-03-29T04:33:23;5.90;84.70
32366;DHT22;18837;46.832;16.838;2023-03-29T04:35:49;5.90;84.10
32366;DHT22;18837;46.832;16.838;2023-03-29T04:38:15;5.90;84.00
32366;DHT22;18837;46.832;16.838;2023-03-29T04:40:41;5.90;84.20
32366;DHT22;18837;46.832;16.838;2023-03-29T04:43:08;5.90;84.70
32366;DHT22;18837;46.832;16.838;2023-03-29T04:45:40;5.90;84.70
32366;DHT22;18837;46.832;16.838;2023-03-29T04:48:06;5.90;85.00
32366;DHT22;18837;46.832;16.838;2023-03-29T04:50:32;5.90;84.40
32366;DHT22;18837;46.832;16.838;2023-03-29T04:53:00;5.90;84.80
32366;DHT22;18837;46.832;16.838;2023-03-29T04:55:26;5.90;84.60
32366;DHT22;18837;46.832;16.838;2023-03-29T04:57:52;5.90;84.30
32366;DHT22;18837;46.832;16.838;2023-03-29T05:00:20;5.80;84.40
32366;DHT22;18837;46.832;16.838;2023-03-29T05:03:04;5.90;84.80
32366;DHT22;18837;46.832;16.838;2023-03-29T05:05:43;5.90;85.20
32366;DHT22;18837;46.832;16.838;2023-03-29T05:08:09;5.80;85.20
32366;DHT22;18837;46.832;16.838;2023-03-29T05:10:35;5.80;85.10
32366;DHT22;18837;46.832;16.838;2023-03-29T05:13:01;5.80;84.90
32366;DHT22;18837;46.832;16.838;2023-03-29T05:15:29;5.90;85.20
32366;DHT22;18837;46.832;16.838;2023-03-29T05:17:56;5.90;85.40
32366;DHT22;18837;46.832;16.838;2023-03-29T05:20:32;5.80;84.50
32366;DHT22;18837;46.832;16.838;2023-03-29T05:22:58;5.90;85.60
32366;DHT22;18837;46.832;16.838;2023-03-29T05:25:24;5.80;84.80
32366;DHT22;18837;46.832;16.838;2023-03-29T05:27:50;5.80;85.50
32366;DHT22;18837;46.832;16.838;2023-03-29T05:30:16;5.80;84.80
32366;DHT22;18837;46.832;16.838;2023-03-29T05:32:42;5.80;84.90
32366;DHT22;18837;46.832;16.838;2023-03-29T05:35:17;5.80;85.40
32366;DHT22;18837;46.832;16.838;2023-03-29T05:37:49;5.80;85.50
32366;DHT22;18837;46.832;16.838;2023-03-29T05:40:18;5.80;85.70
32366;DHT22;18837;46.832;16.838;2023-03-29T05:42:44;5.80;85.60
32366;DHT22;18837;46.832;16.838;2023-03-29T05:45:10;5.80;85.10
32366;DHT22;18837;46.832;16.838;2023-03-29T05:47:36;5.80;86.10
32366;DHT22;18837;46.832;16.838;2023-03-29T05:50:02;5.80;85.10
32366;DHT22;18837;46.832;16.838;2023-03-29T05:52:28;5.80;85.00
32366;DHT22;18837;46.832;16.838;2023-03-29T05:54:55;5.80;84.80
32366;DHT22;18837;46.832;16.838;2023-03-29T05:57:21;5.80;85.10
32366;DHT22;18837;46.832;16.838;2023-03-29T05:59:47;5.80;85.10
32366;DHT22;18837;46.832;16.838;2023-03-29T06:02:13;5.80;85.40
32366;DHT22;18837;46.832;16.838;2023-03-29T06:04:40;5.80;85.00
32366;DHT22;18837;46.832;16.838;2023-03-29T06:07:06;5.80;85.20
32366;DHT22;18837;46.832;16.838;2023-03-29T06:09:32;5.80;85.20
32366;DHT22;18837;46.832;16.838;2023-03-29T06:11:59;5.80;85.50
32366;DHT22;18837;46.832;16.838;2023-03-29T06:14:26;5.80;85.60
32366;DHT22;18837;46.832;16.838;2023-03-29T06:16:52;5.80;85.20
32366;DHT22;18837;46.832;16.838;2023-03-29T06:19:19;5.80;86.10
32366;DHT22;18837;46.832;16.838;2023-03-29T06:21:45;5.90;85.40
32366;DHT22;18837;46.832;16.838;2023-03-29T06:24:11;5.90;86.10
32366;DHT22;18837;46.832;16.838;2023-03-29T06:26:37;5.90;85.60
32366;DHT22;18837;46.832;16.838;2023-03-29T06:29:05;5.90;85.40
32366;DHT22;18837;46.832;16.838;2023-03-29T06:31:31;5.90;85.90
32366;DHT22;18837;46.832;16.838;2023-03-29T06:33:57;5.90;86.80
32366;DHT22;18837;46.832;16.838;2023-03-29T06:36:23;5.90;85.80
32366;DHT22;18837;46.832;16.838;2023-03-29T06:38:50;5.90;87.10
32366;DHT22;18837;46.832;16.838;2023-03-29T06:41:17;6.00;87.00
32366;DHT22;18837;46.832;16.838;2023-03-29T06:43:43;6.00;86.90
32366;DHT22;18837;46.832;16.838;2023-03-29T06:46:20;6.00;87.00
32366;DHT22;18837;46.832;16.838;2023-03-29T06:48:59;6.00;87.70
32366;DHT22;18837;46.832;16.838;2023-03-29T06:51:25;6.00;87.00
32366;DHT22;18837;46.832;16.838;2023-03-29T06:53:52;6.00;86.80
32366;DHT22;18837;46.832;16.838;2023-03-29T06:56:17;6.00;87.10
32366;DHT22;18837;46.832;16.838;2023-03-29T06:58:43;6.10;86.90
32366;DHT22;18837;46.832;16.838;2023-03-29T07:01:09;6.10;87.00
32366;DHT22;18837;46.832;16.838;2023-03-29T07:03:38;6.10;87.20
32366;DHT22;18837;46.832;16.838;2023-03-29T07:06:05;6.10;87.00
32366;DHT22;18837;46.832;16.838;2023-03-29T07:08:38;6.10;87.60
32366;DHT22;18837;46.832;16.838;2023-03-29T07:11:13;6.10;88.80
32366;DHT22;18837;46.832;16.838;2023-03-29T07:13:42;6.10;87.10
32366;DHT22;18837;46.832;16.838;2023-03-29T07:16:10;6.10;87.20
32366;DHT22;18837;46.832;16.838;2023-03-29T07:18:43;6.10;87.10
32366;DHT22;18837;46.832;16.838;2023-03-29T07:21:21;6.10;87.40
32366;DHT22;18837;46.832;16.838;2023-03-29T07:27:04;6.20;90.20
32366;DHT22;18837;46.832;16.838;2023-03-29T07:29:30;6.20;87.40
32366;DHT22;18837;46.832;16.838;2023-03-29T07:31:56;6.20;86.70
32366;DHT22;18837;46.832;16.838;2023-03-29T07:34:22;6.20;87.20
32366;DHT22;18837;46.832;16.838;2023-03-29T07:36:48;6.20;87.20
32366;DHT22;18837;46.832;16.838;2023-03-29T07:39:32;6.20;87.20
32366;DHT22;18837;46.832;16.838;2023-03-29T07:41:58;6.30;87.90
32366;DHT22;18837;46.832;16.838;2023-03-29T07:44:24;6.20;88.10
32366;DHT22;18837;46.832;16.838;2023-03-29T07:46:51;6.30;87.90
32366;DHT22;18837;46.832;16.838;2023-03-29T07:49:17;6.30;87.40
32366;DHT22;18837;46.832;16.838;2023-03-29T07:51:42;6.30;87.30
32366;DHT22;18837;46.832;16.838;2023-03-29T07:54:08;6.30;86.90
32366;DHT22;18837;46.832;16.838;2023-03-29T07:56:41;6.30;86.90
32366;DHT22;18837;46.832;16.838;2023-03-29T07:59:19;6.30;87.40
32366;DHT22;18837;46.832;16.838;2023-03-29T08:01:45;6.30;87.30
32366;DHT22;18837;46.832;16.838;2023-03-29T08:04:10;6.40;86.60
32366;DHT22;18837;46.832;16.838;2023-03-29T08:06:36;6.40;86.70
32366;DHT22;18837;46.832;16.838;2023-03-29T08:09:03;6.40;86.70
32366;DHT22;18837;46.832;16.838;2023-03-29T08:11:28;6.40;86.50
32366;DHT22;18837;46.832;16.838;2023-03-29T08:14:00;6.40;86.60
32366;DHT22;18837;46.832;16.838;2023-03-29T08:16:26;6.50;87.60
32366;DHT22;18837;46.832;16.838;2023-03-29T08:18:52;6.50;86.50
32366;DHT22;18837;46.832;16.838;2023-03-29T08:21:18;6.50;86.40
32366;DHT22;18837;46.832;16.838;2023-03-29T08:23:43;6.50;86.70
32366;DHT22;18837;46.832;16.838;2023-03-29T08:26:09;6.50;85.90
32366;DHT22;18837;46.832;16.838;2023-03-29T08:28:35;6.60;86.20
32366;DHT22;18837;46.832;16.838;2023-03-29T08:31:21;6.60;85.80
32366;DHT22;18837;46.832;16.838;2023-03-29T08:34:02;6.60;86.60
32366;DHT22;18837;46.832;16.838;2023-03-29T08:36:28;6.60;86.80
32366;DHT22;18837;46.832;16.838;2023-03-29T08:38:54;6.60;86.20
32366;DHT22;18837;46.832;16.838;2023-03-29T08:49:35;6.70;90.10
32366;DHT22;18837;46.832;16.838;2023-03-29T08:52:05;6.70;86.30
32366;DHT22;18837;46.832;16.838;2023-03-29T08:54:45;6.70;86.30
32366;DHT22;18837;46.832;16.838;2023-03-29T08:57:28;6.80;86.40
32366;DHT22;18837;46.832;16.838;2023-03-29T08:59:57;6.80;86.40
32366;DHT22;18837;46.832;16.838;2023-03-29T09:02:26;6.80;86.10
32366;DHT22;18837;46.832;16.838;2023-03-29T09:05:17;6.80;86.20
32366;DHT22;18837;46.832;16.838;2023-03-29T09:08:07;6.90;90.80
32366;DHT22;18837;46.832;16.838;2023-03-29T09:10:45;6.90;86.40
32366;DHT22;18837;46.832;16.838;2023-03-29T09:27:32;7.10;90.70
32366;DHT22;18837;46.832;16.838;2023-03-29T09:30:13;7.10;85.80
32366;DHT22;18837;46.832;16.838;2023-03-29T09:32:51;7.20;85.80
32366;DHT22;18837;46.832;16.838;2023-03-29T09:35:29;7.20;88.70
32366;DHT22;18837;46.832;16.838;2023-03-29T09:37:56;7.30;84.60
32366;DHT22;18837;46.832;16.838;2023-03-29T09:43:16;7.30;85.50
32366;DHT22;18837;46.832;16.838;2023-03-29T09:45:44;7.30;85.40
32366;DHT22;18837;46.832;16.838;2023-03-29T09:48:14;7.40;84.90
32366;DHT22;18837;46.832;16.838;2023-03-29T09:50:42;7.40;85.00
32366;DHT22;18837;46.832;16.838;2023-03-29T09:53:10;7.40;85.30
32366;DHT22;18837;46.832;16.838;2023-03-29T09:55:37;7.40;84.30
32366;DHT22;18837;46.832;16.838;2023-03-29T09:58:23;7.40;84.80
32366;DHT22;18837;46.832;16.838;2023-03-29T10:00:49;7.40;84.10
32366;DHT22;18837;46.832;16.838;2023-03-29T10:03:30;7.50;83.90
32366;DHT22;18837;46.832;16.838;2023-03-29T10:05:58;7.50;84.70
32366;DHT22;18837;46.832;16.838;2023-03-29T10:10:53;7.60;83.80
32366;DHT22;18837;46.832;16.838;2023-03-29T10:13:29;7.60;83.10
32366;DHT22;18837;46.832;16.838;2023-03-29T10:19:18;7.70;88.30
32366;DHT22;18837;46.832;16.838;2023-03-29T10:21:47;7.70;88.50
32366;DHT22;18837;46.832;16.838;2023-03-29T10:24:18;7.80;84.00
32366;DHT22;18837;46.832;16.838;2023-03-29T10:26:44;7.80;83.90
32366;DHT22;18837;46.832;16.838;2023-03-29T10:29:12;7.80;84.30
32366;DHT22;18837;46.832;16.838;2023-03-29T10:31:38;7.90;84.00
32366;DHT22;18837;46.832;16.838;2023-03-29T10:34:13;7.90;83.80
32366;DHT22;18837;46.832;16.838;2023-03-29T10:36:44;8.00;84.30
32366;DHT22;18837;46.832;16.838;2023-03-29T10:39:13;8.00;83.80
32366;DHT22;18837;46.832;16.838;2023-03-29T10:41:41;8.00;82.90
32366;DHT22;18837;46.832;16.838;2023-03-29T10:44:34;8.10;83.20
32366;DHT22;18837;46.832;16.838;2023-03-29T10:47:14;8.10;88.40
32366;DHT22;18837;46.832;16.838;2023-03-29T10:50:03;8.10;88.60
32366;DHT22;18837;46.832;16.838;2023-03-29T10:52:42;8.20;90.00
32366;DHT22;18837;46.832;16.838;2023-03-29T10:55:12;8.20;84.70
32366;DHT22;18837;46.832;16.838;2023-03-29T10:57:59;8.20;84.10
32366;DHT22;18837;46.832;16.838;2023-03-29T11:00:47;8.30;86.10
32366;DHT22;18837;46.832;16.838;2023-03-29T11:03:28;8.30;86.60
32366;DHT22;18837;46.832;16.838;2023-03-29T11:12:23;8.40;85.10
32366;DHT22;18837;46.832;16.838;2023-03-29T11:18:04;8.50;82.80
32366;DHT22;18837;46.832;16.838;2023-03-29T11:41:26;8.80;84.90
32366;DHT22;18837;46.832;16.838;2023-03-29T11:54:57;8.90;83.60
32366;DHT22;18837;46.832;16.838;2023-03-29T12:01:16;8.90;83.00
32366;DHT22;18837;46.832;16.838;2023-03-29T12:03:50;9.00;83.40
32366;DHT22;18837;46.832;16.838;2023-03-29T12:06:55;9.00;80.20
32366;DHT22;18837;46.832;16.838;2023-03-29T12:09:47;9.00;84.10
32366;DHT22;18837;46.832;16.838;2023-03-29T12:12:31;9.10;81.40
32366;DHT22;18837;46.832;16.838;2023-03-29T12:17:45;9.10;80.50
32366;DHT22;18837;46.832;16.838;2023-03-29T12:20:27;9.10;79.40
32366;DHT22;18837;46.832;16.838;2023-03-29T12:22:56;9.20;79.50
32366;DHT22;18837;46.832;16.838;2023-03-29T12:25:40;9.10;80.70
32366;DHT22;18837;46.832;16.838;2023-03-29T12:30:48;9.20;80.20
32366;DHT22;18837;46.832;16.838;2023-03-29T12:39:20;9.20;84.50
32366;DHT22;18837;46.832;16.838;2023-03-29T12:41:47;9.20;81.10
32366;DHT22;18837;46.832;16.838;2023-03-29T12:44:17;9.20;81.60
32366;DHT22;18837;46.832;16.838;2023-03-29T12:46:45;9.20;81.90
32366;DHT22;18837;46.832;16.838;2023-03-29T12:52:20;9.20;85.20
32366;DHT22;18837;46.832;16.838;2023-03-29T12:54:57;9.20;81.20
32366;DHT22;18837;46.832;16.838;2023-03-29T12:59:55;9.30;83.50
32366;DHT22;18837;46.832;16.838;2023-03-29T13:02:35;9.30;79.70
32366;DHT22;18837;46.832;16.838;2023-03-29T13:05:01;9.30;77.00
32366;DHT22;18837;46.832;16.838;2023-03-29T13:07:54;9.30;77.00
32366;DHT22;18837;46.832;16.838;2023-03-29T13:10:49;9.30;79.60
32366;DHT22;18837;46.832;16.838;2023-03-29T13:13:19;9.20;77.80
32366;DHT22;18837;46.832;16.838;2023-03-29T13:15:46;9.20;78.30
32366;DHT22;18837;46.832;16.838;2023-03-29T13:21:33;9.20;83.10
32366;DHT22;18837;46.832;16.838;2023-03-29T13:27:19;9.20;83.70
32366;DHT22;18837;46.832;16.838;2023-03-29T13:30:14;9.20;81.30
32366;DHT22;18837;46.832;16.838;2023-03-29T13:32:57;9.20;83.90
32366;DHT22;18837;46.832;16.838;2023-03-29T13:35:46;9.20;83.30
32366;DHT22;18837;46.832;16.838;2023-03-29T13:38:21;9.20;85.70
32366;DHT22;18837;46.832;16.838;2023-03-29T13:44:40;9.10;82.30
32366;DHT22;18837;46.832;16.838;2023-03-29T13:49:56;9.10;80.40
32366;DHT22;18837;46.832;16.838;2023-03-29T13:52:41;9.00;80.80
32366;DHT22;18837;46.832;16.838;2023-03-29T13:55:13;9.00;82.90
32366;DHT22;18837;46.832;16.838;2023-03-29T13:57:48;9.00;83.50
32366;DHT22;18837;46.832;16.838;2023-03-29T14:03:04;9.00;81.80
32366;DHT22;18837;46.832;16.838;2023-03-29T14:05:34;9.00;81.20
32366;DHT22;18837;46.832;16.838;2023-03-29T14:10:52;9.00;81.70
32366;DHT22;18837;46.832;16.838;2023-03-29T14:13:23;8.90;81.60
32366;DHT22;18837;46.832;16.838;2023-03-29T14:16:27;8.90;84.30
32366;DHT22;18837;46.832;16.838;2023-03-29T14:19:33;8.90;85.20
32366;DHT22;18837;46.832;16.838;2023-03-29T14:22:01;8.90;84.70
32366;DHT22;18837;46.832;16.838;2023-03-29T14:24:37;8.90;80.70
32366;DHT22;18837;46.832;16.838;2023-03-29T14:27:05;8.90;80.10
32366;DHT22;18837;46.832;16.838;2023-03-29T14:29:32;8.80;79.60
32366;DHT22;18837;46.832;16.838;2023-03-29T14:32:15;8.80;79.70
32366;DHT22;18837;46.832;16.838;2023-03-29T14:34:48;8.80;80.40
32366;DHT22;18837;46.832;16.838;2023-03-29T14:37:22;8.80;80.60
32366;DHT22;18837;46.832;16.838;2023-03-29T14:39:49;8.80;80.40
32366;DHT22;18837;46.832;16.838;2023-03-29T14:42:18;8.80;81.80
32366;DHT22;18837;46.832;16.838;2023-03-29T14:44:48;8.80;81.20
32366;DHT22;18837;46.832;16.838;2023-03-29T14:47:27;8.80;81.50
32366;DHT22;18837;46.832;16.838;2023-03-29T14:50:18;8.80;82.00
32366;DHT22;18837;46.832;16.838;2023-03-29T14:53:03;8.80;85.50
32366;DHT22;18837;46.832;16.838;2023-03-29T14:55:30;8.80;81.60
32366;DHT22;18837;46.832;16.838;2023-03-29T14:57:56;8.80;81.80
32366;DHT22;18837;46.832;16.838;2023-03-29T15:00:37;8.70;80.90
32366;DHT22;18837;46.832;16.838;2023-03-29T15:03:12;8.80;80.00
32366;DHT22;18837;46.832;16.838;2023-03-29T15:05:40;8.80;79.20
32366;DHT22;18837;46.832;16.838;2023-03-29T15:08:37;8.70;78.80
32366;DHT22;18837;46.832;16.838;2023-03-29T15:13:42;8.70;80.00
32366;DHT22;18837;46.832;16.838;2023-03-29T15:16:13;8.70;79.90
32366;DHT22;18837;46.832;16.838;2023-03-29T15:18:42;8.70;80.70
32366;DHT22;18837;46.832;16.838;2023-03-29T15:21:11;8.70;81.10
32366;DHT22;18837;46.832;16.838;2023-03-29T15:24:18;8.70;81.60
32366;DHT22;18837;46.832;16.838;2023-03-29T15:27:01;8.70;85.90
32366;DHT22;18837;46.832;16.838;2023-03-29T15:30:11;8.70;86.20
32366;DHT22;18837;46.832;16.838;2023-03-29T15:32:38;8.70;83.30
32366;DHT22;18837;46.832;16.838;2023-03-29T15:35:07;8.70;83.40
32366;DHT22;18837;46.832;16.838;2023-03-29T15:37:34;8.70;84.60
32366;DHT22;18837;46.832;16.838;2023-03-29T15:40:01;8.60;84.10
32366;DHT22;18837;46.832;16.838;2023-03-29T15:42:34;8.60;83.20
32366;DHT22;18837;46.832;16.838;2023-03-29T15:45:11;8.60;83.50
32366;DHT22;18837;46.832;16.838;2023-03-29T15:47:38;8.60;84.70
32366;DHT22;18837;46.832;16.838;2023-03-29T15:50:04;8.60;83.20
32366;DHT22;18837;46.832;16.838;2023-03-29T15:52:31;8.60;85.40
32366;DHT22;18837;46.832;16.838;2023-03-29T15:54:56;8.60;83.50
32366;DHT22;18837;46.832;16.838;2023-03-29T15:57:22;8.60;83.40
32366;DHT22;18837;46.832;16.838;2023-03-29T16:00:01;8.60;83.50
32366;DHT22;18837;46.832;16.838;2023-03-29T16:02:42;8.60;83.10
32366;DHT22;18837;46.832;16.838;2023-03-29T16:05:09;8.60;84.60
32366;DHT22;18837;46.832;16.838;2023-03-29T16:07:37;8.60;82.00
32366;DHT22;18837;46.832;16.838;2023-03-29T16:10:04;8.60;81.20
32366;DHT22;18837;46.832;16.838;2023-03-29T16:12:30;8.60;83.00
32366;DHT22;18837;46.832;16.838;2023-03-29T16:14:56;8.60;82.30
32366;DHT22;18837;46.832;16.838;2023-03-29T16:17:31;8.60;82.30
32366;DHT22;18837;46.832;16.838;2023-03-29T16:19:58;8.60;84.10
32366;DHT22;18837;46.832;16.838;2023-03-29T16:22:24;8.60;83.30
32366;DHT22;18837;46.832;16.838;2023-03-29T16:24:49;8.60;82.60
32366;DHT22;18837;46.832;16.838;2023-03-29T16:27:15;8.60;82.80
32366;DHT22;18837;46.832;16.838;2023-03-29T16:29:42;8.60;83.50
32366;DHT22;18837;46.832;16.838;2023-03-29T16:32:09;8.60;83.20
32366;DHT22;18837;46.832;16.838;2023-03-29T16:34:59;8.60;82.90
32366;DHT22;18837;46.832;16.838;2023-03-29T16:37:37;8.60;86.60
32366;DHT22;18837;46.832;16.838;2023-03-29T16:40:04;8.60;83.60
32366;DHT22;18837;46.832;16.838;2023-03-29T16:42:32;8.60;82.90
32366;DHT22;18837;46.832;16.838;2023-03-29T16:44:58;8.60;82.60
32366;DHT22;18837;46.832;16.838;2023-03-29T16:47:26;8.60;84.30
32366;DHT22;18837;46.832;16.838;2023-03-29T16:49:53;8.60;84.60
32366;DHT22;18837;46.832;16.838;2023-03-29T16:52:25;8.60;84.30
32366;DHT22;18837;46.832;16.838;2023-03-29T16:54:55;8.60;83.90
32366;DHT22;18837;46.832;16.838;2023-03-29T16:57:20;8.60;82.20
32366;DHT22;18837;46.832;16.838;2023-03-29T16:59:46;8.60;80.10
32366;DHT22;18837;46.832;16.838;2023-03-29T17:02:12;8.70;80.70
32366;DHT22;18837;46.832;16.838;2023-03-29T17:04:38;8.60;79.80
32366;DHT22;18837;46.832;16.838;2023-03-29T17:07:03;8.60;79.40
32366;DHT22;18837;46.832;16.838;2023-03-29T17:09:35;8.60;79.20
32366;DHT22;18837;46.832;16.838;2023-03-29T18:42:58;8.20;91.00
32366;DHT22;18837;46.832;16.838;2023-03-29T18:45:25;8.20;90.10
32366;DHT22;18837;46.832;16.838;2023-03-29T18:47:51;8.20;87.00
32366;DHT22;18837;46.832;16.838;2023-03-29T18:50:17;8.20;86.80
32366;DHT22;18837;46.832;16.838;2023-03-29T18:52:43;8.20;88.40
32366;DHT22;18837;46.832;16.838;2023-03-29T18:55:09;8.20;86.70
32366;DHT22;18837;46.832;16.838;2023-03-29T18:57:35;8.20;87.00
32366;DHT22;18837;46.832;16.838;2023-03-29T19:00:01;8.20;87.90
32366;DHT22;18837;46.832;16.838;2023-03-29T19:02:27;8.20;86.40
32366;DHT22;18837;46.832;16.838;2023-03-29T19:04:53;8.20;86.40
32366;DHT22;18837;46.832;16.838;2023-03-29T19:07:20;8.10;86.50
32366;DHT22;18837;46.832;16.838;2023-03-29T19:09:47;8.10;86.70
32366;DHT22;18837;46.832;16.838;2023-03-29T19:12:13;8.10;87.30
32366;DHT22;18837;46.832;16.838;2023-03-29T19:14:39;8.10;87.10
32366;DHT22;18837;46.832;16.838;2023-03-29T19:17:05;8.10;86.60
32366;DHT22;18837;46.832;16.838;2023-03-29T19:19:31;8.10;87.40
32366;DHT22;18837;46.832;16.838;2023-03-29T19:21:57;8.10;86.80
32366;DHT22;18837;46.832;16.838;2023-03-29T19:24:23;8.10;89.20
32366;DHT22;18837;46.832;16.838;2023-03-29T19:26:49;8.10;88.30
32366;DHT22;18837;46.832;16.838;2023-03-29T19:29:16;8.10;86.10
32366;DHT22;18837;46.832;16.838;2023-03-29T19:31:42;8.10;86.90
32366;DHT22;18837;46.832;16.838;2023-03-29T19:34:08;8.10;86.80
32366;DHT22;18837;46.832;16.838;2023-03-29T19:36:36;8.10;90.50
32366;DHT22;18837;46.832;16.838;2023-03-29T19:39:03;8.10;86.50
32366;DHT22;18837;46.832;16.838;2023-03-29T20:04:49;8.00;91.70